createdAt,value
2019-04-16T00:02:18.738Z,69.40
2019-04-16T00:05:10.551Z,69.70
2019-04-16T00:07:47.328Z,70.30
2019-04-16T00:10:35.806Z,70.20
2019-04-16T00:13:11.079Z,70.00
2019-04-16T00:15:42.096Z,70.70
2019-04-16T00:18:12.784Z,71.60
2019-04-16T00:20:56.863Z,72.40
2019-04-16T00:23:39.071Z,72.20
2019-04-16T00:26:09.571Z,71.90
2019-04-16T00:28:40.008Z,71.20
2019-04-16T00:31:10.548Z,72.00
2019-04-16T00:33:42.675Z,72.80
2019-04-16T00:36:15.396Z,73.90
2019-04-16T00:38:45.719Z,74.00
2019-04-16T00:41:16.154Z,75.90
2019-04-16T00:43:46.616Z,75.70
2019-04-16T00:46:17.074Z,75.30
2019-04-16T00:48:47.543Z,76.30
2019-04-16T00:51:17.971Z,77.40
2019-04-16T00:53:48.514Z,76.70
2019-04-16T00:56:18.922Z,76.70
2019-04-16T00:58:52.152Z,76.80
2019-04-16T01:01:21.682Z,77.00
2019-04-16T01:03:52.247Z,77.30
2019-04-16T01:06:22.667Z,77.30
2019-04-16T01:08:54.875Z,77.50
2019-04-16T01:11:25.441Z,77.20
2019-04-16T01:13:56.326Z,78.00
2019-04-16T01:16:27.236Z,77.80
2019-04-16T01:18:57.683Z,79.40
2019-04-16T01:21:28.154Z,79.40
2019-04-16T01:24:00.318Z,79.10
2019-04-16T01:26:30.801Z,79.10
2019-04-16T01:29:20.426Z,80.40
2019-04-16T01:32:12.582Z,81.10
2019-04-16T01:35:00.522Z,80.60
2019-04-16T01:37:56.511Z,80.20
2019-04-16T01:40:31.100Z,81.90
2019-04-16T01:43:02.003Z,81.50
2019-04-16T01:45:32.870Z,81.20
2019-04-16T01:48:06.727Z,81.80
2019-04-16T01:50:35.842Z,81.70
2019-04-16T01:53:06.385Z,80.80
2019-04-16T01:55:36.845Z,81.00
2019-04-16T01:58:07.253Z,80.90
2019-04-16T02:00:39.211Z,81.30
2019-04-16T02:03:09.921Z,81.60
2019-04-16T02:05:40.432Z,81.90
2019-04-16T02:08:10.843Z,81.60
2019-04-16T02:10:41.320Z,80.60
2019-04-16T02:13:14.597Z,81.00
2019-04-16T02:15:44.026Z,82.50
2019-04-16T02:18:14.452Z,81.30
2019-04-16T02:20:45.037Z,81.80
2019-04-16T02:23:16.700Z,82.90
2019-04-16T02:25:48.410Z,83.20
2019-04-16T02:28:21.802Z,84.80
2019-04-16T02:30:52.520Z,82.70
2019-04-16T02:33:23.462Z,82.30
2019-04-16T02:35:53.996Z,82.50
2019-04-16T02:38:24.418Z,81.70
2019-04-16T02:40:54.856Z,82.50
2019-04-16T02:43:25.275Z,83.30
2019-04-16T02:45:58.305Z,83.40
2019-04-16T02:48:28.021Z,83.70
2019-04-16T02:51:08.760Z,82.20
2019-04-16T02:53:50.607Z,81.90
2019-04-16T02:56:32.305Z,82.00
2019-04-16T02:59:13.645Z,82.80
2019-04-16T03:02:05.115Z,83.40
2019-04-16T03:04:40.557Z,83.00
2019-04-16T03:07:11.067Z,83.40
2019-04-16T03:09:41.487Z,83.50
2019-04-16T03:12:11.981Z,83.50
2019-04-16T03:14:42.514Z,82.80
2019-04-16T03:17:25.600Z,82.90
2019-04-16T03:19:56.654Z,83.70
2019-04-16T03:22:27.115Z,83.50
2019-04-16T03:24:57.527Z,83.70
2019-04-16T03:27:28.039Z,84.30
2019-04-16T03:30:02.952Z,83.90
2019-04-16T03:32:35.450Z,84.30
2019-04-16T03:35:02.967Z,85.30
2019-04-16T03:37:33.781Z,85.20
2019-04-16T03:40:15.176Z,85.60
2019-04-16T03:42:36.566Z,86.10
2019-04-16T03:45:09.189Z,85.80
2019-04-16T03:47:39.795Z,86.00
2019-04-16T03:50:10.865Z,86.00
2019-04-16T03:52:45.524Z,85.50
2019-04-16T03:55:13.642Z,85.90
2019-04-16T03:57:44.099Z,86.30
2019-04-16T04:00:14.770Z,86.50
2019-04-16T04:02:45.251Z,86.20
2019-04-16T04:05:15.786Z,86.50
2019-04-16T04:07:46.273Z,85.90
2019-04-16T04:10:29.553Z,86.20
2019-04-16T04:12:49.208Z,86.20
2019-04-16T04:15:19.708Z,86.70
2019-04-16T04:17:50.263Z,86.90
2019-04-16T04:20:20.868Z,87.60
2019-04-16T04:22:51.345Z,87.30
2019-04-16T04:25:21.835Z,87.20
2019-04-16T04:27:52.352Z,87.10
2019-04-16T04:30:25.673Z,86.90
2019-04-16T04:32:56.756Z,86.20
2019-04-16T04:35:27.192Z,86.60
2019-04-16T04:37:57.645Z,86.90
2019-04-16T04:40:28.305Z,86.70
2019-04-16T04:43:00.870Z,87.20
2019-04-16T04:45:31.254Z,87.00
2019-04-16T04:48:02.368Z,87.00
2019-04-16T04:50:35.255Z,86.50
2019-04-16T04:53:05.340Z,87.10
2019-04-16T04:55:35.745Z,86.00
2019-04-16T04:58:06.231Z,86.30
2019-04-16T05:00:37.434Z,85.70
2019-04-16T05:03:12.397Z,85.60
2019-04-16T05:05:50.433Z,86.00
2019-04-16T05:08:20.946Z,86.20
2019-04-16T05:10:59.002Z,85.90
2019-04-16T05:13:24.907Z,85.10
2019-04-16T05:15:58.363Z,85.10
2019-04-16T05:18:27.956Z,85.10
2019-04-16T05:20:58.407Z,84.90
2019-04-16T05:23:28.887Z,85.10
2019-04-16T05:25:59.333Z,84.40
2019-04-16T05:28:29.818Z,84.90
2019-04-16T05:30:59.133Z,83.40
2019-04-16T05:33:29.581Z,83.70
2019-04-16T05:36:00.195Z,83.90
2019-04-16T05:38:30.683Z,83.90
2019-04-16T05:41:12.679Z,83.80
2019-04-16T05:43:33.304Z,83.10
2019-04-16T05:46:05.504Z,83.50
2019-04-16T05:48:36.067Z,82.50
2019-04-16T05:51:06.817Z,82.70
2019-04-16T05:53:40.142Z,83.80
2019-04-16T05:56:27.821Z,83.50
2019-04-16T05:58:59.651Z,81.90
2019-04-16T06:01:45.549Z,82.40
2019-04-16T06:04:16.653Z,82.50
2019-04-16T06:06:47.143Z,80.40
2019-04-16T06:09:17.808Z,77.10
2019-04-16T06:11:48.343Z,67.70
2019-04-16T06:14:26.123Z,58.70
2019-04-16T06:17:18.700Z,53.30
2019-04-16T06:20:18.994Z,47.90
2019-04-16T06:23:08.036Z,43.60
2019-04-16T06:25:46.029Z,40.10
2019-04-16T06:28:35.382Z,37.20
2019-04-16T06:31:30.154Z,36.80
2019-04-16T06:34:24.331Z,29.20
2019-04-16T06:37:07.715Z,29.50
2019-04-16T06:39:48.621Z,28.90
2019-04-16T06:42:40.788Z,27.60
2019-04-16T06:45:28.019Z,25.70
2019-04-16T06:48:03.534Z,25.40
2019-04-16T06:51:04.776Z,24.70
2019-04-16T06:53:54.015Z,24.40
2019-04-16T06:56:53.827Z,23.20
2019-04-16T06:59:33.571Z,23.00
2019-04-16T07:02:37.346Z,22.50
2019-04-16T07:05:13.269Z,22.10
2019-04-16T07:08:00.984Z,22.10
2019-04-16T07:10:44.465Z,22.30
2019-04-16T07:13:10.251Z,21.80
2019-04-16T07:15:39.573Z,23.20
2019-04-16T07:18:12.107Z,22.50
2019-04-16T07:20:45.750Z,22.40
2019-04-16T07:23:15.216Z,22.60
2019-04-16T07:25:46.198Z,23.20
2019-04-16T07:28:39.080Z,23.50
2019-04-16T07:31:33.456Z,24.80
2019-04-16T07:34:18.504Z,24.40
2019-04-16T07:37:10.643Z,23.90
2019-04-16T07:39:53.957Z,24.60
2019-04-16T07:42:51.940Z,24.30
2019-04-16T07:45:36.257Z,24.20
2019-04-16T07:48:25.273Z,23.00
2019-04-16T07:51:13.497Z,23.00
2019-04-16T07:54:12.157Z,24.10
2019-04-16T07:56:44.965Z,22.90
2019-04-16T07:59:15.590Z,23.30
2019-04-16T08:01:47.866Z,24.00
2019-04-16T08:04:28.288Z,23.20
2019-04-16T08:06:50.359Z,22.90
2019-04-16T08:09:20.866Z,24.00
2019-04-16T08:11:51.294Z,23.00
2019-04-16T08:14:21.854Z,21.90
2019-04-16T08:16:52.377Z,22.30
2019-04-16T08:19:36.169Z,22.70
2019-04-16T08:21:55.553Z,22.00
2019-04-16T08:24:31.235Z,22.30
2019-04-16T08:27:01.737Z,22.10
2019-04-16T08:29:32.518Z,22.80
2019-04-16T08:32:03.076Z,21.40
2019-04-16T08:34:33.750Z,20.30
2019-04-16T08:37:07.651Z,20.40
2019-04-16T08:39:39.868Z,20.40
2019-04-16T08:42:09.243Z,20.80
2019-04-16T08:44:39.884Z,20.90
2019-04-16T08:47:12.119Z,20.00
2019-04-16T08:49:42.706Z,19.30
2019-04-16T08:52:13.307Z,20.00
2019-04-16T08:54:43.843Z,20.00
2019-04-16T08:57:14.393Z,20.00
2019-04-16T08:59:44.877Z,20.70
2019-04-16T09:02:15.427Z,20.90
2019-04-16T09:04:45.857Z,20.70
2019-04-16T09:07:34.469Z,21.30
2019-04-16T09:10:17.239Z,20.40
2019-04-16T09:12:44.885Z,20.30
2019-04-16T09:15:18.342Z,20.20
2019-04-16T09:17:51.581Z,19.60
2019-04-16T09:20:25.061Z,18.50
2019-04-16T09:22:58.349Z,18.50
2019-04-16T09:25:55.633Z,19.30
2019-04-16T09:28:47.987Z,19.70
2019-04-16T09:31:36.348Z,19.90
2019-04-16T09:34:16.397Z,20.10
2019-04-16T09:37:04.651Z,20.70
2019-04-16T09:39:46.695Z,19.50
2019-04-16T09:42:17.182Z,20.10
2019-04-16T09:44:47.608Z,19.30
2019-04-16T09:47:18.181Z,19.90
2019-04-16T09:49:48.645Z,19.60
2019-04-16T09:52:19.748Z,19.60
2019-04-16T09:54:51.401Z,20.10
2019-04-16T09:57:24.342Z,18.80
2019-04-16T09:59:59.778Z,19.20
2019-04-16T10:02:33.290Z,19.70
2019-04-16T10:05:04.306Z,20.20
2019-04-16T10:07:39.790Z,20.80
2019-04-16T10:10:07.578Z,20.60
2019-04-16T10:12:38.173Z,21.40
2019-04-16T10:15:09.475Z,20.90
2019-04-16T10:17:40.400Z,20.60
2019-04-16T10:20:10.802Z,21.00
2019-04-16T10:22:41.703Z,20.60
2019-04-16T10:25:15.667Z,21.00
2019-04-16T10:27:49.272Z,21.50
2019-04-16T10:30:41.943Z,23.00
2019-04-16T10:33:12.673Z,21.10
2019-04-16T10:35:43.626Z,20.40
2019-04-16T10:38:26.627Z,19.80
2019-04-16T10:41:03.540Z,19.90
2019-04-16T10:43:52.045Z,20.80
2019-04-16T10:46:28.414Z,20.50
2019-04-16T10:49:17.749Z,20.40
2019-04-16T10:51:56.616Z,19.80
2019-04-16T10:54:37.154Z,19.90
2019-04-16T10:57:26.713Z,21.20
2019-04-16T11:00:16.110Z,19.20
2019-04-16T11:02:53.963Z,19.50
2019-04-16T11:05:28.519Z,20.00
2019-04-16T11:07:59.467Z,20.40
2019-04-16T11:10:29.936Z,20.90
2019-04-16T11:13:01.371Z,22.00
2019-04-16T11:15:32.046Z,24.20
2019-04-16T11:18:02.568Z,24.70
2019-04-16T11:20:33.126Z,24.90
2019-04-16T11:23:06.812Z,26.30
2019-04-16T11:25:36.134Z,27.50
2019-04-16T11:28:06.576Z,27.90
2019-04-16T11:30:43.505Z,27.70
2019-04-16T11:33:13.873Z,27.70
2019-04-16T11:35:44.560Z,28.60
2019-04-16T11:38:17.314Z,29.40
2019-04-16T11:40:47.655Z,29.20
2019-04-16T11:43:18.302Z,29.70
2019-04-16T11:45:49.431Z,30.60
2019-04-16T11:48:19.975Z,31.70
2019-04-16T11:50:50.549Z,31.10
2019-04-16T11:53:21.003Z,32.10
2019-04-16T11:55:51.508Z,33.50
2019-04-16T11:58:41.027Z,32.10
2019-04-16T12:01:26.908Z,32.60
2019-04-16T12:04:04.817Z,32.50
2019-04-16T12:06:42.387Z,34.30
2019-04-16T12:09:23.347Z,34.60
2019-04-16T12:12:02.174Z,31.60
2019-04-16T12:14:54.390Z,31.50
2019-04-16T12:17:36.202Z,32.10
2019-04-16T12:20:21.595Z,32.70
2019-04-16T12:23:11.319Z,32.20
2019-04-16T12:25:51.115Z,33.10
2019-04-16T12:28:43.347Z,32.00
2019-04-16T12:31:37.218Z,31.60
2019-04-16T12:34:26.590Z,31.90
2019-04-16T12:37:12.190Z,34.50
2019-04-16T12:39:58.398Z,32.90
2019-04-16T12:42:42.276Z,31.00
2019-04-16T12:45:29.165Z,32.20
2019-04-16T12:48:05.926Z,32.40
2019-04-16T12:50:59.936Z,32.50
2019-04-16T12:53:55.668Z,32.60
2019-04-16T12:56:44.122Z,33.10
2019-04-16T12:59:22.139Z,33.00
2019-04-16T13:02:11.986Z,32.80
2019-04-16T13:04:58.842Z,33.20
2019-04-16T13:07:34.161Z,34.00
2019-04-16T13:10:42.216Z,33.90
2019-04-16T13:13:36.647Z,33.80
2019-04-16T13:16:16.616Z,34.80
2019-04-16T13:19:15.199Z,34.20
2019-04-16T13:21:50.213Z,34.00
2019-04-16T13:24:42.718Z,34.60
2019-04-16T13:27:18.729Z,35.10
2019-04-16T13:29:49.538Z,35.90
2019-04-16T13:32:20.023Z,35.90
2019-04-16T13:34:50.825Z,36.10
2019-04-16T13:37:21.299Z,35.70
2019-04-16T13:40:10.823Z,34.20
2019-04-16T13:42:41.238Z,34.20
2019-04-16T13:45:28.996Z,34.80
2019-04-16T13:48:14.857Z,35.00
2019-04-16T13:50:51.345Z,35.00
2019-04-16T13:53:40.708Z,34.90
2019-04-16T13:56:20.663Z,35.40
2019-04-16T13:59:15.211Z,34.60
2019-04-16T14:01:53.236Z,35.20
2019-04-16T14:04:23.768Z,35.30
2019-04-16T14:06:54.482Z,35.80
2019-04-16T14:09:25.004Z,36.80
2019-04-16T14:11:55.576Z,37.60
2019-04-16T14:14:26.311Z,37.30
2019-04-16T14:16:57.169Z,38.10
2019-04-16T14:19:27.775Z,37.90
2019-04-16T14:21:58.455Z,37.60
2019-04-16T14:24:28.933Z,36.80
2019-04-16T14:27:01.299Z,37.40
2019-04-16T14:29:31.778Z,37.40
2019-04-16T14:32:02.362Z,37.70
2019-04-16T14:34:45.206Z,37.10
2019-04-16T14:37:15.702Z,37.30
2019-04-16T14:39:50.578Z,37.10
2019-04-16T14:42:22.320Z,37.40
2019-04-16T14:44:58.115Z,38.10
2019-04-16T14:47:29.954Z,37.90
2019-04-16T14:50:01.115Z,37.80
2019-04-16T14:52:31.687Z,38.30
2019-04-16T14:55:11.862Z,39.10
2019-04-16T14:58:00.118Z,38.30
2019-04-16T15:00:55.418Z,38.80
2019-04-16T15:04:03.019Z,38.80
2019-04-16T15:06:44.414Z,38.70
2019-04-16T15:09:39.668Z,39.40
2019-04-16T15:12:34.788Z,39.70
2019-04-16T15:15:22.794Z,39.40
2019-04-16T15:18:04.225Z,39.80
2019-04-16T15:21:02.753Z,40.10
2019-04-16T15:23:49.728Z,40.20
2019-04-16T15:26:42.067Z,40.20
2019-04-16T15:29:20.822Z,40.80
2019-04-16T15:32:09.843Z,40.60
2019-04-16T15:34:43.370Z,40.90
2019-04-16T15:37:30.634Z,42.00
2019-04-16T15:40:08.456Z,42.00
2019-04-16T15:42:56.923Z,41.50
2019-04-16T15:45:37.824Z,41.90
2019-04-16T15:48:14.828Z,41.10
2019-04-16T15:50:54.939Z,41.10
2019-04-16T15:53:41.080Z,40.60
2019-04-16T15:56:17.337Z,40.70
2019-04-16T15:59:07.095Z,40.80
2019-04-16T16:02:02.948Z,40.70
2019-04-16T16:04:52.947Z,41.00
2019-04-16T16:07:26.267Z,41.70
2019-04-16T16:10:18.715Z,42.20
2019-04-16T16:12:50.815Z,42.10
2019-04-16T16:15:21.460Z,41.50
2019-04-16T16:17:52.131Z,41.10
2019-04-16T16:20:22.771Z,41.20
2019-04-16T16:22:54.564Z,42.00
2019-04-16T16:25:25.543Z,41.70
2019-04-16T16:27:56.349Z,41.40
2019-04-16T16:30:26.904Z,42.20
2019-04-16T16:32:57.417Z,42.10
2019-04-16T16:35:27.943Z,42.70
2019-04-16T16:37:58.376Z,43.00
2019-04-16T16:40:28.906Z,42.80
2019-04-16T16:42:59.571Z,43.50
2019-04-16T16:45:58.295Z,44.00
2019-04-16T16:48:29.692Z,44.20
2019-04-16T16:51:00.202Z,44.80
2019-04-16T16:53:37.124Z,44.90
2019-04-16T16:56:24.314Z,45.40
2019-04-16T16:59:01.179Z,46.00
2019-04-16T17:01:37.139Z,46.60
2019-04-16T17:04:11.692Z,46.90
2019-04-16T17:06:42.396Z,47.50
2019-04-16T17:09:22.956Z,47.90
2019-04-16T17:11:55.836Z,48.00
2019-04-16T17:14:25.943Z,48.40
2019-04-16T17:17:11.284Z,48.80
2019-04-16T17:19:28.640Z,48.80
2019-04-16T17:21:59.407Z,48.90
2019-04-16T17:24:29.944Z,49.20
2019-04-16T17:27:00.399Z,49.10
2019-04-16T17:29:30.917Z,49.10
2019-04-16T17:32:01.533Z,49.50
2019-04-16T17:34:32.093Z,50.00
2019-04-16T17:37:02.595Z,50.00
2019-04-16T17:39:46.131Z,50.60
2019-04-16T17:42:17.460Z,51.10
2019-04-16T17:45:06.911Z,51.20
2019-04-16T17:47:57.213Z,51.60
2019-04-16T17:50:39.580Z,51.90
2019-04-16T17:53:27.554Z,52.20
2019-04-16T17:56:15.834Z,52.40
2019-04-16T17:58:50.677Z,52.80
2019-04-16T18:01:43.574Z,52.60
2019-04-16T18:04:25.496Z,52.70
2019-04-16T18:07:06.176Z,52.60
2019-04-16T18:10:03.624Z,52.80
2019-04-16T18:12:55.253Z,53.00
2019-04-16T18:15:53.321Z,53.00
2019-04-16T18:18:28.625Z,53.40
2019-04-16T18:21:08.640Z,53.40
2019-04-16T18:23:52.456Z,53.70
2019-04-16T18:26:57.342Z,53.80
2019-04-16T18:29:33.515Z,54.60
2019-04-16T18:32:21.076Z,55.30
2019-04-16T18:35:16.568Z,55.20
2019-04-16T18:37:55.145Z,56.70
2019-04-16T18:40:47.301Z,56.40
2019-04-16T18:43:52.404Z,56.40
2019-04-16T18:46:44.559Z,57.00
2019-04-16T18:49:18.200Z,57.50
2019-04-16T18:51:49.217Z,57.60
2019-04-16T18:54:20.171Z,57.30
2019-04-16T18:56:50.834Z,57.90
2019-04-16T18:59:21.448Z,58.00
2019-04-16T19:01:55.194Z,58.80
2019-04-16T19:04:25.774Z,59.60
2019-04-16T19:06:56.413Z,59.30
2019-04-16T19:09:27.036Z,59.80
2019-04-16T19:11:57.638Z,59.40
2019-04-16T19:14:28.272Z,59.60
2019-04-16T19:16:58.758Z,59.80
2019-04-16T19:19:29.557Z,59.90
2019-04-16T19:22:00.123Z,60.30
2019-04-16T19:24:31.434Z,60.70
2019-04-16T19:27:02.005Z,61.20
2019-04-16T19:29:32.681Z,61.60
2019-04-16T19:32:03.507Z,61.70
2019-04-16T19:34:34.119Z,62.20
2019-04-16T19:37:04.557Z,62.30
2019-04-16T19:39:35.407Z,63.10
2019-04-16T19:42:06.166Z,63.60
2019-04-16T19:44:39.837Z,64.30
2019-04-16T19:47:09.750Z,64.60
2019-04-16T19:49:40.489Z,65.30
2019-04-16T19:52:11.049Z,65.70
2019-04-16T19:54:41.731Z,66.50
2019-04-16T19:57:12.488Z,68.10
2019-04-16T19:59:46.391Z,69.80
2019-04-16T20:02:15.903Z,71.80
2019-04-16T20:04:50.526Z,74.90
2019-04-16T20:07:19.328Z,77.00
2019-04-16T20:09:49.866Z,81.60
2019-04-16T20:12:20.380Z,84.30
2019-04-16T20:14:52.932Z,87.00
2019-04-16T20:17:23.665Z,88.70
2019-04-16T20:20:00.872Z,89.00
2019-04-16T20:22:32.247Z,89.80
2019-04-16T20:25:02.949Z,91.40
2019-04-16T20:27:36.214Z,91.10
2019-04-16T20:30:06.352Z,90.60
2019-04-16T20:32:37.015Z,90.60
2019-04-16T20:35:07.691Z,87.90
2019-04-16T20:37:38.256Z,87.60
2019-04-16T20:40:09.311Z,88.20
2019-04-16T20:42:39.920Z,89.70
2019-04-16T20:45:10.679Z,87.10
2019-04-16T20:47:41.214Z,86.50
2019-04-16T20:50:12.021Z,86.60
2019-04-16T20:52:42.593Z,85.50
2019-04-16T20:55:16.151Z,84.60
2019-04-16T20:57:46.046Z,85.90
2019-04-16T21:00:21.638Z,85.60
2019-04-16T21:02:52.141Z,86.30
2019-04-16T21:05:22.796Z,86.20
2019-04-16T21:07:53.441Z,87.50
2019-04-16T21:10:24.495Z,88.10
2019-04-16T21:12:55.569Z,88.40
2019-04-16T21:15:27.350Z,89.40
2019-04-16T21:17:58.825Z,90.10
2019-04-16T21:20:29.503Z,89.60
2019-04-16T21:23:02.327Z,90.00
2019-04-16T21:25:32.433Z,89.80
2019-04-16T21:28:24.087Z,90.80
2019-04-16T21:30:58.980Z,91.10
2019-04-16T21:33:41.149Z,92.80
2019-04-16T21:36:13.191Z,92.50
2019-04-16T21:39:06.595Z,92.40
2019-04-16T21:41:37.048Z,93.30
2019-04-16T21:44:11.482Z,93.20
2019-04-16T21:46:40.215Z,93.40
2019-04-16T21:49:10.785Z,93.20
2019-04-16T21:52:00.547Z,93.30
2019-04-16T21:54:31.464Z,93.10
2019-04-16T21:57:02.229Z,93.50
2019-04-16T21:59:33.147Z,94.00
2019-04-16T22:02:07.205Z,94.00
2019-04-16T22:04:37.790Z,94.00
2019-04-16T22:07:08.771Z,94.30
2019-04-16T22:09:40.754Z,94.20
2019-04-16T22:12:15.193Z,94.70
2019-04-16T22:14:43.688Z,94.70
2019-04-16T22:17:14.185Z,95.00
2019-04-16T22:19:53.883Z,95.00
2019-04-16T22:22:16.863Z,95.60
2019-04-16T22:24:47.377Z,96.00
2019-04-16T22:27:18.146Z,96.00
2019-04-16T22:29:48.675Z,96.30
2019-04-16T22:32:19.357Z,97.20
2019-04-16T22:34:49.859Z,97.50
2019-04-16T22:37:20.308Z,98.20
2019-04-16T22:40:09.679Z,98.50
2019-04-16T22:42:49.969Z,98.90
2019-04-16T22:45:57.524Z,99.30
2019-04-16T22:48:28.000Z,99.20
2019-04-16T22:50:58.562Z,99.60
2019-04-16T22:53:28.982Z,99.70
2019-04-16T22:56:00.635Z,99.80
2019-04-16T22:58:49.690Z,99.90
2019-04-16T23:01:21.868Z,99.90
2019-04-16T23:03:53.473Z,99.90
2019-04-16T23:06:24.948Z,99.90
2019-04-16T23:08:55.481Z,99.90
2019-04-16T23:11:25.951Z,99.90
2019-04-16T23:13:57.028Z,99.90
2019-04-16T23:16:27.560Z,99.90
2019-04-16T23:18:57.988Z,99.90
2019-04-16T23:21:28.466Z,99.90
2019-04-16T23:23:59.152Z,99.90
2019-04-16T23:26:33.069Z,99.90
2019-04-16T23:29:02.030Z,99.90
2019-04-16T23:31:32.654Z,99.90
2019-04-16T23:34:06.041Z,99.90
2019-04-16T23:36:35.383Z,99.90
2019-04-16T23:39:07.906Z,99.90
2019-04-16T23:41:38.422Z,99.90
2019-04-16T23:44:26.775Z,99.90
2019-04-16T23:47:19.259Z,99.90
2019-04-16T23:50:02.517Z,99.90
2019-04-16T23:52:35.568Z,99.90
2019-04-16T23:55:31.616Z,99.90
2019-04-16T23:58:13.176Z,99.90
